< < Back
Terminal Aerodrome Forecast


Current Version              Previous Versions:   1  2  3  4  5  6  7  8  9  

Terminal Aerodrome Forecast

662
FTAK31 PAJN 241729
TAFAGS
TAF
PAGS 241729Z 2418/2518 32005KT 5SM -RA BR SCT008 OVC015
      TEMPO 2418/2420 2SM -RA BR OVC004
     FM250200 00000KT P6SM OVC008
     FM250500 00000KT P6SM OVC004
     FM250900 00000KT 2SM -RA BR OVC004
      AMD LTD TO CLD VIS AND WIND=



Latest METAR

966
SAUS70 KWBC 242100 RRF
MTRAGS
METAR KAGS 242053Z 36009KT 10SM BKN085 32/19 A3017 RMK AO2 SLP215
T03170194 56018


USA.gov is the U.S. government's official web portal to all federal, state and local government web resources and services.